LEAL/ALC METAR and TAF weather

Enter ICAO airport designator
Station Type Date Time Source
LEAL METAR 2022/06/28 15:00 UTC NOAA

LEAL 281500Z 09008KT 030V140 CAVOK 27/20 Q1017 NOSIG


Station Type Date Time Source
LEAL Decoded METAR 2022/06/28 15:00 UTC NOAA

Alicante / El Altet, Spain (LEAL) 38-17N 000-33W 31M
Jun 28, 2022 - 11:00 AM EDT / 2022.06.28 1500 UTC
Wind: from the E (090 degrees) at 9 MPH (8 KT) (direction variable):0
Visibility: greater than 7 mile(s):0
Temperature: 80 F (27 C)
Dew Point: 68 F (20 C)
Relative Humidity: 65%
Pressure (altimeter): 30.03 in. Hg (1017 hPa)
ob: LEAL 281500Z 09008KT 030V140 CAVOK 27/20 Q1017 NOSIG
cycle: 15

Station Type Date Time Source
LEAL TAF 2022/06/28 12:27 UTC NOAA

TAF TAF LEAL 281100Z 2812/2912 10010KT 9999 SCT015 TX29/2812Z TN19/2906Z
BECMG 2815/2818 29003KT
BECMG 2910/2912 11010KT

Example: see airport list